sensor_id;sensor_type;location;lat;lon;timestamp;temperature;humidity
17452;DHT22;8843;48.838;9.324;2022-07-04T00:01:34;23.40;66.20
17452;DHT22;8843;48.838;9.324;2022-07-04T00:04:02;23.50;66.20
17452;DHT22;8843;48.838;9.324;2022-07-04T00:06:29;23.50;66.20
17452;DHT22;8843;48.838;9.324;2022-07-04T00:08:56;23.40;66.00
17452;DHT22;8843;48.838;9.324;2022-07-04T00:11:23;23.40;66.30
17452;DHT22;8843;48.838;9.324;2022-07-04T00:13:50;23.50;66.40
17452;DHT22;8843;48.838;9.324;2022-07-04T00:16:17;23.40;66.40
17452;DHT22;8843;48.838;9.324;2022-07-04T00:18:44;23.40;66.40
17452;DHT22;8843;48.838;9.324;2022-07-04T00:21:12;23.40;66.50
17452;DHT22;8843;48.838;9.324;2022-07-04T00:23:39;23.40;66.40
17452;DHT22;8843;48.838;9.324;2022-07-04T00:26:06;23.40;66.60
17452;DHT22;8843;48.838;9.324;2022-07-04T00:28:32;23.40;66.30
17452;DHT22;8843;48.838;9.324;2022-07-04T00:30:59;23.40;66.40
17452;DHT22;8843;48.838;9.324;2022-07-04T00:33:26;23.50;66.30
17452;DHT22;8843;48.838;9.324;2022-07-04T00:35:53;23.40;66.40
17452;DHT22;8843;48.838;9.324;2022-07-04T00:38:21;23.40;66.50
17452;DHT22;8843;48.838;9.324;2022-07-04T00:40:48;23.40;66.50
17452;DHT22;8843;48.838;9.324;2022-07-04T00:43:21;23.40;66.50
17452;DHT22;8843;48.838;9.324;2022-07-04T00:45:49;23.40;66.30
17452;DHT22;8843;48.838;9.324;2022-07-04T00:48:16;23.40;66.40
17452;DHT22;8843;48.838;9.324;2022-07-04T00:50:44;23.40;66.30
17452;DHT22;8843;48.838;9.324;2022-07-04T00:53:13;23.40;66.60
17452;DHT22;8843;48.838;9.324;2022-07-04T00:55:41;23.40;66.60
17452;DHT22;8843;48.838;9.324;2022-07-04T00:58:09;23.40;66.70
17452;DHT22;8843;48.838;9.324;2022-07-04T01:00:37;23.40;66.60
17452;DHT22;8843;48.838;9.324;2022-07-04T01:03:04;23.40;66.70
17452;DHT22;8843;48.838;9.324;2022-07-04T01:05:31;23.40;66.60
17452;DHT22;8843;48.838;9.324;2022-07-04T01:07:58;23.40;66.60
17452;DHT22;8843;48.838;9.324;2022-07-04T01:10:26;23.30;66.70
17452;DHT22;8843;48.838;9.324;2022-07-04T01:12:54;23.30;66.70
17452;DHT22;8843;48.838;9.324;2022-07-04T01:15:21;23.30;66.70
17452;DHT22;8843;48.838;9.324;2022-07-04T01:17:48;23.30;66.80
17452;DHT22;8843;48.838;9.324;2022-07-04T01:20:17;23.30;66.90
17452;DHT22;8843;48.838;9.324;2022-07-04T01:22:44;23.30;66.90
17452;DHT22;8843;48.838;9.324;2022-07-04T01:25:11;23.30;67.50
17452;DHT22;8843;48.838;9.324;2022-07-04T01:27:39;23.30;66.80
17452;DHT22;8843;48.838;9.324;2022-07-04T01:30:07;23.30;67.00
17452;DHT22;8843;48.838;9.324;2022-07-04T01:32:34;23.30;66.80
17452;DHT22;8843;48.838;9.324;2022-07-04T01:35:01;23.30;66.90
17452;DHT22;8843;48.838;9.324;2022-07-04T01:37:29;23.30;67.10
17452;DHT22;8843;48.838;9.324;2022-07-04T01:39:56;23.30;67.00
17452;DHT22;8843;48.838;9.324;2022-07-04T01:42:23;23.30;67.00
17452;DHT22;8843;48.838;9.324;2022-07-04T01:44:50;23.30;67.10
17452;DHT22;8843;48.838;9.324;2022-07-04T01:47:17;23.30;67.60
17452;DHT22;8843;48.838;9.324;2022-07-04T01:49:44;23.30;67.10
17452;DHT22;8843;48.838;9.324;2022-07-04T01:52:11;23.30;67.10
17452;DHT22;8843;48.838;9.324;2022-07-04T01:54:40;23.30;67.20
17452;DHT22;8843;48.838;9.324;2022-07-04T01:57:07;23.30;67.30
17452;DHT22;8843;48.838;9.324;2022-07-04T01:59:34;23.20;67.10
17452;DHT22;8843;48.838;9.324;2022-07-04T02:02:18;23.20;67.20
17452;DHT22;8843;48.838;9.324;2022-07-04T02:04:45;23.20;67.20
17452;DHT22;8843;48.838;9.324;2022-07-04T02:07:12;23.20;67.20
17452;DHT22;8843;48.838;9.324;2022-07-04T02:09:40;23.20;67.20
17452;DHT22;8843;48.838;9.324;2022-07-04T02:12:08;23.20;67.30
17452;DHT22;8843;48.838;9.324;2022-07-04T02:14:52;23.20;67.20
17452;DHT22;8843;48.838;9.324;2022-07-04T02:17:19;23.20;67.20
17452;DHT22;8843;48.838;9.324;2022-07-04T02:19:47;23.20;67.30
17452;DHT22;8843;48.838;9.324;2022-07-04T02:22:14;23.20;67.30
17452;DHT22;8843;48.838;9.324;2022-07-04T02:24:43;23.20;67.40
17452;DHT22;8843;48.838;9.324;2022-07-04T02:27:09;23.20;67.30
17452;DHT22;8843;48.838;9.324;2022-07-04T02:29:36;23.20;67.30
17452;DHT22;8843;48.838;9.324;2022-07-04T02:32:04;23.20;67.40
17452;DHT22;8843;48.838;9.324;2022-07-04T02:34:31;23.20;67.50
17452;DHT22;8843;48.838;9.324;2022-07-04T02:36:58;23.20;67.30
17452;DHT22;8843;48.838;9.324;2022-07-04T02:39:25;23.20;67.40
17452;DHT22;8843;48.838;9.324;2022-07-04T02:41:53;23.20;67.50
17452;DHT22;8843;48.838;9.324;2022-07-04T02:44:20;23.10;67.40
17452;DHT22;8843;48.838;9.324;2022-07-04T02:46:47;23.20;67.60
17452;DHT22;8843;48.838;9.324;2022-07-04T02:49:14;23.10;67.50
17452;DHT22;8843;48.838;9.324;2022-07-04T02:51:41;23.20;67.50
17452;DHT22;8843;48.838;9.324;2022-07-04T02:54:08;23.10;67.50
17452;DHT22;8843;48.838;9.324;2022-07-04T02:56:35;23.10;67.50
17452;DHT22;8843;48.838;9.324;2022-07-04T02:59:04;23.10;67.50
17452;DHT22;8843;48.838;9.324;2022-07-04T03:01:31;23.10;67.50
17452;DHT22;8843;48.838;9.324;2022-07-04T03:03:58;23.10;67.30
17452;DHT22;8843;48.838;9.324;2022-07-04T03:06:25;23.10;67.30
17452;DHT22;8843;48.838;9.324;2022-07-04T03:08:52;23.10;67.50
17452;DHT22;8843;48.838;9.324;2022-07-04T03:11:19;23.10;67.50
17452;DHT22;8843;48.838;9.324;2022-07-04T03:13:46;23.10;67.20
17452;DHT22;8843;48.838;9.324;2022-07-04T03:16:15;23.10;67.30
17452;DHT22;8843;48.838;9.324;2022-07-04T03:18:42;23.10;67.40
17452;DHT22;8843;48.838;9.324;2022-07-04T03:21:08;23.10;67.40
17452;DHT22;8843;48.838;9.324;2022-07-04T03:23:35;23.10;67.50
17452;DHT22;8843;48.838;9.324;2022-07-04T03:26:02;23.10;67.50
17452;DHT22;8843;48.838;9.324;2022-07-04T03:28:29;23.10;67.50
17452;DHT22;8843;48.838;9.324;2022-07-04T03:30:56;23.10;67.50
17452;DHT22;8843;48.838;9.324;2022-07-04T03:33:25;23.10;67.50
17452;DHT22;8843;48.838;9.324;2022-07-04T03:35:52;23.00;67.50
17452;DHT22;8843;48.838;9.324;2022-07-04T03:38:19;23.00;67.50
17452;DHT22;8843;48.838;9.324;2022-07-04T03:40:46;23.00;67.50
17452;DHT22;8843;48.838;9.324;2022-07-04T03:43:13;23.00;67.50
17452;DHT22;8843;48.838;9.324;2022-07-04T03:45:40;23.00;67.50
17452;DHT22;8843;48.838;9.324;2022-07-04T03:48:07;23.00;67.60
17452;DHT22;8843;48.838;9.324;2022-07-04T03:50:35;23.00;67.60
17452;DHT22;8843;48.838;9.324;2022-07-04T03:53:02;23.00;67.60
17452;DHT22;8843;48.838;9.324;2022-07-04T03:55:29;23.00;67.60
17452;DHT22;8843;48.838;9.324;2022-07-04T03:57:56;23.00;67.60
17452;DHT22;8843;48.838;9.324;2022-07-04T04:00:23;23.00;67.60
17452;DHT22;8843;48.838;9.324;2022-07-04T04:02:49;23.00;67.60
17452;DHT22;8843;48.838;9.324;2022-07-04T04:05:16;23.00;67.60
17452;DHT22;8843;48.838;9.324;2022-07-04T04:07:54;23.00;67.60
17452;DHT22;8843;48.838;9.324;2022-07-04T04:10:21;23.00;67.70
17452;DHT22;8843;48.838;9.324;2022-07-04T04:12:48;23.00;67.70
17452;DHT22;8843;48.838;9.324;2022-07-04T04:15:15;23.00;67.80
17452;DHT22;8843;48.838;9.324;2022-07-04T04:17:42;23.00;67.80
17452;DHT22;8843;48.838;9.324;2022-07-04T04:20:09;23.00;67.80
17452;DHT22;8843;48.838;9.324;2022-07-04T04:22:36;22.90;67.70
17452;DHT22;8843;48.838;9.324;2022-07-04T04:25:05;22.90;67.80
17452;DHT22;8843;48.838;9.324;2022-07-04T04:27:33;22.90;67.90
17452;DHT22;8843;48.838;9.324;2022-07-04T04:29:59;22.90;67.90
17452;DHT22;8843;48.838;9.324;2022-07-04T04:32:27;22.90;67.90
17452;DHT22;8843;48.838;9.324;2022-07-04T04:34:54;22.90;67.90
17452;DHT22;8843;48.838;9.324;2022-07-04T04:37:20;22.90;67.90
17452;DHT22;8843;48.838;9.324;2022-07-04T04:39:48;22.90;67.90
17452;DHT22;8843;48.838;9.324;2022-07-04T04:42:16;22.90;67.90
17452;DHT22;8843;48.838;9.324;2022-07-04T04:44:43;22.90;67.90
17452;DHT22;8843;48.838;9.324;2022-07-04T04:47:10;22.90;68.00
17452;DHT22;8843;48.838;9.324;2022-07-04T04:49:37;22.90;68.00
17452;DHT22;8843;48.838;9.324;2022-07-04T04:52:04;22.90;68.00
17452;DHT22;8843;48.838;9.324;2022-07-04T04:54:32;22.90;68.10
17452;DHT22;8843;48.838;9.324;2022-07-04T04:56:59;22.90;67.90
17452;DHT22;8843;48.838;9.324;2022-07-04T04:59:28;22.90;67.90
17452;DHT22;8843;48.838;9.324;2022-07-04T05:01:55;22.90;67.90
17452;DHT22;8843;48.838;9.324;2022-07-04T05:04:22;22.80;67.90
17452;DHT22;8843;48.838;9.324;2022-07-04T05:06:49;22.90;68.10
17452;DHT22;8843;48.838;9.324;2022-07-04T05:09:17;22.90;68.10
17452;DHT22;8843;48.838;9.324;2022-07-04T05:11:45;22.80;68.10
17452;DHT22;8843;48.838;9.324;2022-07-04T05:14:13;22.80;68.40
17452;DHT22;8843;48.838;9.324;2022-07-04T05:16:41;22.80;68.00
17452;DHT22;8843;48.838;9.324;2022-07-04T05:19:08;22.70;68.00
17452;DHT22;8843;48.838;9.324;2022-07-04T05:21:35;22.50;65.20
17452;DHT22;8843;48.838;9.324;2022-07-04T05:24:02;22.50;65.20
17452;DHT22;8843;48.838;9.324;2022-07-04T05:26:29;22.50;65.20
17452;DHT22;8843;48.838;9.324;2022-07-04T05:28:56;22.50;65.50
17452;DHT22;8843;48.838;9.324;2022-07-04T05:31:23;22.50;66.10
17452;DHT22;8843;48.838;9.324;2022-07-04T05:33:51;22.50;65.20
17452;DHT22;8843;48.838;9.324;2022-07-04T05:36:20;22.30;66.50
17452;DHT22;8843;48.838;9.324;2022-07-04T05:38:47;22.50;68.20
17452;DHT22;8843;48.838;9.324;2022-07-04T05:41:14;22.50;67.70
17452;DHT22;8843;48.838;9.324;2022-07-04T05:43:41;22.60;67.20
17452;DHT22;8843;48.838;9.324;2022-07-04T05:46:08;22.60;67.20
17452;DHT22;8843;48.838;9.324;2022-07-04T05:48:35;22.70;67.20
17452;DHT22;8843;48.838;9.324;2022-07-04T05:51:04;22.70;67.20
17452;DHT22;8843;48.838;9.324;2022-07-04T05:53:31;22.70;66.60
17452;DHT22;8843;48.838;9.324;2022-07-04T05:55:58;22.50;67.60
17452;DHT22;8843;48.838;9.324;2022-07-04T05:58:25;22.50;65.90
17452;DHT22;8843;48.838;9.324;2022-07-04T06:00:52;22.50;66.50
17452;DHT22;8843;48.838;9.324;2022-07-04T06:03:19;22.60;67.20
17452;DHT22;8843;48.838;9.324;2022-07-04T06:05:45;22.60;66.90
17452;DHT22;8843;48.838;9.324;2022-07-04T06:08:14;22.60;65.80
17452;DHT22;8843;48.838;9.324;2022-07-04T06:10:40;22.60;66.00
17452;DHT22;8843;48.838;9.324;2022-07-04T06:13:07;22.60;66.90
17452;DHT22;8843;48.838;9.324;2022-07-04T06:15:34;22.50;66.20
17452;DHT22;8843;48.838;9.324;2022-07-04T06:18:01;22.50;66.00
17452;DHT22;8843;48.838;9.324;2022-07-04T06:20:28;22.40;64.80
17452;DHT22;8843;48.838;9.324;2022-07-04T06:22:56;22.40;65.40
17452;DHT22;8843;48.838;9.324;2022-07-04T06:25:24;22.30;65.00
17452;DHT22;8843;48.838;9.324;2022-07-04T06:27:51;22.30;65.30
17452;DHT22;8843;48.838;9.324;2022-07-04T06:30:18;22.30;65.80
17452;DHT22;8843;48.838;9.324;2022-07-04T06:32:46;22.30;65.40
17452;DHT22;8843;48.838;9.324;2022-07-04T06:35:14;22.30;65.60
17452;DHT22;8843;48.838;9.324;2022-07-04T06:37:58;22.10;65.90
17452;DHT22;8843;48.838;9.324;2022-07-04T06:40:26;22.20;67.10
17452;DHT22;8843;48.838;9.324;2022-07-04T06:42:53;22.20;67.10
17452;DHT22;8843;48.838;9.324;2022-07-04T06:45:20;22.20;67.10
17452;DHT22;8843;48.838;9.324;2022-07-04T06:47:47;22.30;67.00
17452;DHT22;8843;48.838;9.324;2022-07-04T06:50:15;22.50;67.10
17452;DHT22;8843;48.838;9.324;2022-07-04T06:52:43;22.40;66.90
17452;DHT22;8843;48.838;9.324;2022-07-04T06:55:10;22.50;66.90
17452;DHT22;8843;48.838;9.324;2022-07-04T06:57:39;22.50;66.90
17452;DHT22;8843;48.838;9.324;2022-07-04T07:00:07;22.50;67.00
17452;DHT22;8843;48.838;9.324;2022-07-04T07:02:34;22.50;66.90
17452;DHT22;8843;48.838;9.324;2022-07-04T07:05:02;22.50;67.00
17452;DHT22;8843;48.838;9.324;2022-07-04T07:07:29;22.50;67.40
17452;DHT22;8843;48.838;9.324;2022-07-04T07:09:56;22.50;67.10
17452;DHT22;8843;48.838;9.324;2022-07-04T07:12:24;22.60;67.20
17452;DHT22;8843;48.838;9.324;2022-07-04T07:14:52;22.50;67.20
17452;DHT22;8843;48.838;9.324;2022-07-04T07:17:20;22.50;67.30
17452;DHT22;8843;48.838;9.324;2022-07-04T07:19:47;22.50;67.30
17452;DHT22;8843;48.838;9.324;2022-07-04T07:22:14;22.50;67.40
17452;DHT22;8843;48.838;9.324;2022-07-04T07:24:42;22.50;67.30
17452;DHT22;8843;48.838;9.324;2022-07-04T07:27:09;22.50;67.60
17452;DHT22;8843;48.838;9.324;2022-07-04T07:29:36;22.60;67.60
17452;DHT22;8843;48.838;9.324;2022-07-04T07:32:06;22.60;67.50
17452;DHT22;8843;48.838;9.324;2022-07-04T07:34:33;22.60;67.50
17452;DHT22;8843;48.838;9.324;2022-07-04T07:37:00;22.60;67.50
17452;DHT22;8843;48.838;9.324;2022-07-04T07:39:27;22.50;66.50
17452;DHT22;8843;48.838;9.324;2022-07-04T07:41:54;22.50;66.90
17452;DHT22;8843;48.838;9.324;2022-07-04T07:44:21;22.60;65.90
17452;DHT22;8843;48.838;9.324;2022-07-04T07:46:48;22.60;65.60
17452;DHT22;8843;48.838;9.324;2022-07-04T07:49:16;22.60;65.50
17452;DHT22;8843;48.838;9.324;2022-07-04T07:51:43;22.60;65.70
17452;DHT22;8843;48.838;9.324;2022-07-04T07:54:10;22.60;65.90
17452;DHT22;8843;48.838;9.324;2022-07-04T07:56:37;22.60;65.90
17452;DHT22;8843;48.838;9.324;2022-07-04T07:59:04;22.60;66.00
17452;DHT22;8843;48.838;9.324;2022-07-04T08:01:31;22.60;65.40
17452;DHT22;8843;48.838;9.324;2022-07-04T08:03:58;22.60;65.80
17452;DHT22;8843;48.838;9.324;2022-07-04T08:06:43;22.70;65.80
17452;DHT22;8843;48.838;9.324;2022-07-04T08:09:10;22.60;65.90
17452;DHT22;8843;48.838;9.324;2022-07-04T08:11:39;22.60;66.00
17452;DHT22;8843;48.838;9.324;2022-07-04T08:14:06;22.70;66.10
17452;DHT22;8843;48.838;9.324;2022-07-04T08:16:34;22.70;65.70
17452;DHT22;8843;48.838;9.324;2022-07-04T08:19:01;22.70;66.10
17452;DHT22;8843;48.838;9.324;2022-07-04T08:21:28;22.70;65.90
17452;DHT22;8843;48.838;9.324;2022-07-04T08:23:56;22.70;65.80
17452;DHT22;8843;48.838;9.324;2022-07-04T08:26:23;22.70;66.10
17452;DHT22;8843;48.838;9.324;2022-07-04T08:28:51;22.80;66.20
17452;DHT22;8843;48.838;9.324;2022-07-04T08:31:18;22.70;66.20
17452;DHT22;8843;48.838;9.324;2022-07-04T08:33:45;22.80;67.30
17452;DHT22;8843;48.838;9.324;2022-07-04T08:36:13;22.80;66.40
17452;DHT22;8843;48.838;9.324;2022-07-04T08:38:40;22.80;66.40
17452;DHT22;8843;48.838;9.324;2022-07-04T08:41:08;22.80;66.30
17452;DHT22;8843;48.838;9.324;2022-07-04T08:43:35;22.80;66.00
17452;DHT22;8843;48.838;9.324;2022-07-04T08:46:04;22.80;66.10
17452;DHT22;8843;48.838;9.324;2022-07-04T08:48:32;22.80;66.10
17452;DHT22;8843;48.838;9.324;2022-07-04T08:51:06;22.80;66.10
17452;DHT22;8843;48.838;9.324;2022-07-04T08:53:38;22.80;65.70
17452;DHT22;8843;48.838;9.324;2022-07-04T08:56:08;22.90;65.70
17452;DHT22;8843;48.838;9.324;2022-07-04T08:58:55;22.90;66.00
17452;DHT22;8843;48.838;9.324;2022-07-04T09:01:22;22.90;65.40
17452;DHT22;8843;48.838;9.324;2022-07-04T09:03:50;22.90;66.40
17452;DHT22;8843;48.838;9.324;2022-07-04T09:06:17;22.90;65.60
17452;DHT22;8843;48.838;9.324;2022-07-04T09:08:44;23.00;65.80
17452;DHT22;8843;48.838;9.324;2022-07-04T09:11:12;23.00;65.10
17452;DHT22;8843;48.838;9.324;2022-07-04T09:13:39;23.00;65.30
17452;DHT22;8843;48.838;9.324;2022-07-04T09:16:06;23.00;65.20
17452;DHT22;8843;48.838;9.324;2022-07-04T09:18:35;23.10;66.00
17452;DHT22;8843;48.838;9.324;2022-07-04T09:21:04;23.10;65.50
17452;DHT22;8843;48.838;9.324;2022-07-04T09:23:34;23.20;65.30
17452;DHT22;8843;48.838;9.324;2022-07-04T09:26:12;23.20;65.30
17452;DHT22;8843;48.838;9.324;2022-07-04T09:28:40;23.20;65.00
17452;DHT22;8843;48.838;9.324;2022-07-04T09:31:19;23.20;65.30
17452;DHT22;8843;48.838;9.324;2022-07-04T09:33:51;23.30;65.50
17452;DHT22;8843;48.838;9.324;2022-07-04T09:36:19;23.30;66.10
17452;DHT22;8843;48.838;9.324;2022-07-04T09:39:09;23.40;65.90
17452;DHT22;8843;48.838;9.324;2022-07-04T09:41:54;23.40;66.30
17452;DHT22;8843;48.838;9.324;2022-07-04T09:44:22;23.40;66.80
17452;DHT22;8843;48.838;9.324;2022-07-04T09:46:49;23.30;67.20
17452;DHT22;8843;48.838;9.324;2022-07-04T09:49:17;23.60;67.90
17452;DHT22;8843;48.838;9.324;2022-07-04T09:51:46;23.80;66.70
17452;DHT22;8843;48.838;9.324;2022-07-04T09:54:19;24.00;65.30
17452;DHT22;8843;48.838;9.324;2022-07-04T09:56:48;24.10;66.00
17452;DHT22;8843;48.838;9.324;2022-07-04T09:59:16;24.10;65.80
17452;DHT22;8843;48.838;9.324;2022-07-04T10:01:43;24.20;66.30
17452;DHT22;8843;48.838;9.324;2022-07-04T10:04:10;24.40;65.60
17452;DHT22;8843;48.838;9.324;2022-07-04T10:06:39;24.40;65.40
17452;DHT22;8843;48.838;9.324;2022-07-04T10:09:08;24.40;64.80
17452;DHT22;8843;48.838;9.324;2022-07-04T10:11:36;24.50;64.20
17452;DHT22;8843;48.838;9.324;2022-07-04T10:14:05;24.50;64.30
17452;DHT22;8843;48.838;9.324;2022-07-04T10:16:34;24.40;64.70
17452;DHT22;8843;48.838;9.324;2022-07-04T10:19:02;24.70;64.00
17452;DHT22;8843;48.838;9.324;2022-07-04T10:21:30;25.20;63.00
17452;DHT22;8843;48.838;9.324;2022-07-04T10:23:57;25.30;62.00
17452;DHT22;8843;48.838;9.324;2022-07-04T10:26:24;25.10;62.00
17452;DHT22;8843;48.838;9.324;2022-07-04T10:28:51;25.00;61.90
17452;DHT22;8843;48.838;9.324;2022-07-04T10:31:21;25.00;62.40
17452;DHT22;8843;48.838;9.324;2022-07-04T10:33:50;25.10;62.60
17452;DHT22;8843;48.838;9.324;2022-07-04T10:36:19;24.90;62.30
17452;DHT22;8843;48.838;9.324;2022-07-04T10:38:48;24.90;63.40
17452;DHT22;8843;48.838;9.324;2022-07-04T10:41:15;25.10;62.60
17452;DHT22;8843;48.838;9.324;2022-07-04T10:43:58;25.30;62.40
17452;DHT22;8843;48.838;9.324;2022-07-04T10:46:32;25.30;62.20
17452;DHT22;8843;48.838;9.324;2022-07-04T10:49:03;25.10;61.80
17452;DHT22;8843;48.838;9.324;2022-07-04T10:51:42;25.30;62.10
17452;DHT22;8843;48.838;9.324;2022-07-04T10:54:11;25.40;62.20
17452;DHT22;8843;48.838;9.324;2022-07-04T10:56:49;25.60;61.60
17452;DHT22;8843;48.838;9.324;2022-07-04T10:59:19;25.80;61.00
17452;DHT22;8843;48.838;9.324;2022-07-04T11:01:48;25.70;61.50
17452;DHT22;8843;48.838;9.324;2022-07-04T11:04:48;26.00;60.50
17452;DHT22;8843;48.838;9.324;2022-07-04T11:07:15;25.80;60.00
17452;DHT22;8843;48.838;9.324;2022-07-04T11:09:43;25.70;60.20
17452;DHT22;8843;48.838;9.324;2022-07-04T11:12:11;25.70;60.60
17452;DHT22;8843;48.838;9.324;2022-07-04T11:14:42;25.90;60.40
17452;DHT22;8843;48.838;9.324;2022-07-04T11:17:12;25.90;60.00
17452;DHT22;8843;48.838;9.324;2022-07-04T11:19:40;25.90;59.70
17452;DHT22;8843;48.838;9.324;2022-07-04T11:22:09;26.10;61.10
17452;DHT22;8843;48.838;9.324;2022-07-04T11:24:37;26.10;59.50
17452;DHT22;8843;48.838;9.324;2022-07-04T11:27:08;26.00;59.50
17452;DHT22;8843;48.838;9.324;2022-07-04T11:29:35;26.30;59.40
17452;DHT22;8843;48.838;9.324;2022-07-04T11:32:02;26.40;59.30
17452;DHT22;8843;48.838;9.324;2022-07-04T11:34:33;26.20;59.10
17452;DHT22;8843;48.838;9.324;2022-07-04T11:37:02;26.40;59.70
17452;DHT22;8843;48.838;9.324;2022-07-04T11:39:31;26.60;59.80
17452;DHT22;8843;48.838;9.324;2022-07-04T11:41:58;26.80;59.00
17452;DHT22;8843;48.838;9.324;2022-07-04T11:44:42;26.80;58.90
17452;DHT22;8843;48.838;9.324;2022-07-04T11:47:37;26.90;58.30
17452;DHT22;8843;48.838;9.324;2022-07-04T11:50:06;26.90;58.40
17452;DHT22;8843;48.838;9.324;2022-07-04T11:52:44;27.10;58.00
17452;DHT22;8843;48.838;9.324;2022-07-04T11:55:14;27.20;58.20
17452;DHT22;8843;48.838;9.324;2022-07-04T11:57:44;27.10;57.80
17452;DHT22;8843;48.838;9.324;2022-07-04T12:00:12;27.20;57.80
17452;DHT22;8843;48.838;9.324;2022-07-04T12:02:40;26.80;57.70
17452;DHT22;8843;48.838;9.324;2022-07-04T12:05:09;27.10;57.60
17452;DHT22;8843;48.838;9.324;2022-07-04T12:07:38;27.30;57.90
17452;DHT22;8843;48.838;9.324;2022-07-04T12:10:09;27.20;57.50
17452;DHT22;8843;48.838;9.324;2022-07-04T12:12:52;27.20;57.50
17452;DHT22;8843;48.838;9.324;2022-07-04T12:15:20;27.40;57.60
17452;DHT22;8843;48.838;9.324;2022-07-04T12:17:50;27.40;57.60
17452;DHT22;8843;48.838;9.324;2022-07-04T12:20:18;27.20;57.40
17452;DHT22;8843;48.838;9.324;2022-07-04T12:22:51;27.40;58.00
17452;DHT22;8843;48.838;9.324;2022-07-04T12:25:24;27.30;56.80
17452;DHT22;8843;48.838;9.324;2022-07-04T12:27:57;27.50;58.30
17452;DHT22;8843;48.838;9.324;2022-07-04T12:30:25;27.40;58.20
17452;DHT22;8843;48.838;9.324;2022-07-04T12:32:56;27.70;56.90
17452;DHT22;8843;48.838;9.324;2022-07-04T12:35:47;27.60;56.40
17452;DHT22;8843;48.838;9.324;2022-07-04T12:38:16;27.70;56.20
17452;DHT22;8843;48.838;9.324;2022-07-04T12:40:54;27.60;57.00
17452;DHT22;8843;48.838;9.324;2022-07-04T12:43:24;27.40;56.90
17452;DHT22;8843;48.838;9.324;2022-07-04T12:45:52;27.40;56.90
17452;DHT22;8843;48.838;9.324;2022-07-04T12:48:24;27.20;56.80
17452;DHT22;8843;48.838;9.324;2022-07-04T12:50:52;27.10;57.00
17452;DHT22;8843;48.838;9.324;2022-07-04T12:53:19;27.50;56.10
17452;DHT22;8843;48.838;9.324;2022-07-04T12:55:48;27.50;56.40
17452;DHT22;8843;48.838;9.324;2022-07-04T12:58:15;27.60;55.80
17452;DHT22;8843;48.838;9.324;2022-07-04T13:00:44;27.80;55.50
17452;DHT22;8843;48.838;9.324;2022-07-04T13:03:11;27.60;52.50
17452;DHT22;8843;48.838;9.324;2022-07-04T13:05:38;27.60;55.50
17452;DHT22;8843;48.838;9.324;2022-07-04T13:08:05;27.40;55.70
17452;DHT22;8843;48.838;9.324;2022-07-04T13:10:33;27.30;56.50
17452;DHT22;8843;48.838;9.324;2022-07-04T13:13:00;27.20;56.20
17452;DHT22;8843;48.838;9.324;2022-07-04T13:15:29;27.10;56.30
17452;DHT22;8843;48.838;9.324;2022-07-04T13:17:57;26.80;56.10
17452;DHT22;8843;48.838;9.324;2022-07-04T13:20:24;26.90;56.90
17452;DHT22;8843;48.838;9.324;2022-07-04T13:22:54;26.50;57.30
17452;DHT22;8843;48.838;9.324;2022-07-04T13:25:21;26.80;56.60
17452;DHT22;8843;48.838;9.324;2022-07-04T13:27:48;27.10;56.40
17452;DHT22;8843;48.838;9.324;2022-07-04T13:30:15;27.00;56.40
17452;DHT22;8843;48.838;9.324;2022-07-04T13:32:42;27.00;55.90
17452;DHT22;8843;48.838;9.324;2022-07-04T13:35:10;27.30;56.40
17452;DHT22;8843;48.838;9.324;2022-07-04T13:37:37;27.10;56.20
17452;DHT22;8843;48.838;9.324;2022-07-04T13:40:06;27.40;56.40
17452;DHT22;8843;48.838;9.324;2022-07-04T13:42:33;27.40;56.00
17452;DHT22;8843;48.838;9.324;2022-07-04T13:45:17;27.40;56.10
17452;DHT22;8843;48.838;9.324;2022-07-04T13:47:44;27.20;56.00
17452;DHT22;8843;48.838;9.324;2022-07-04T13:50:13;27.10;56.20
17452;DHT22;8843;48.838;9.324;2022-07-04T13:52:40;27.10;56.40
17452;DHT22;8843;48.838;9.324;2022-07-04T13:55:07;27.10;55.60
17452;DHT22;8843;48.838;9.324;2022-07-04T13:57:35;27.20;56.10
17452;DHT22;8843;48.838;9.324;2022-07-04T14:00:03;27.10;56.70
17452;DHT22;8843;48.838;9.324;2022-07-04T14:02:36;26.90;56.10
17452;DHT22;8843;48.838;9.324;2022-07-04T14:05:08;27.00;56.60
17452;DHT22;8843;48.838;9.324;2022-07-04T14:07:36;26.90;56.90
17452;DHT22;8843;48.838;9.324;2022-07-04T14:10:04;26.90;56.60
17452;DHT22;8843;48.838;9.324;2022-07-04T14:12:31;27.20;56.30
17452;DHT22;8843;48.838;9.324;2022-07-04T14:14:58;27.00;56.30
17452;DHT22;8843;48.838;9.324;2022-07-04T14:17:25;27.30;56.50
17452;DHT22;8843;48.838;9.324;2022-07-04T14:19:52;27.10;56.30
17452;DHT22;8843;48.838;9.324;2022-07-04T14:22:19;27.10;56.10
17452;DHT22;8843;48.838;9.324;2022-07-04T14:24:47;27.10;56.90
17452;DHT22;8843;48.838;9.324;2022-07-04T14:27:14;26.80;56.90
17452;DHT22;8843;48.838;9.324;2022-07-04T14:29:41;27.00;56.60
17452;DHT22;8843;48.838;9.324;2022-07-04T14:32:08;27.00;56.90
17452;DHT22;8843;48.838;9.324;2022-07-04T14:34:35;27.10;56.80
17452;DHT22;8843;48.838;9.324;2022-07-04T14:37:02;27.10;56.30
17452;DHT22;8843;48.838;9.324;2022-07-04T14:39:29;26.90;56.50
17452;DHT22;8843;48.838;9.324;2022-07-04T14:41:58;26.80;57.00
17452;DHT22;8843;48.838;9.324;2022-07-04T14:44:25;26.50;57.60
17452;DHT22;8843;48.838;9.324;2022-07-04T14:46:51;26.30;57.90
17452;DHT22;8843;48.838;9.324;2022-07-04T14:49:18;26.20;57.30
17452;DHT22;8843;48.838;9.324;2022-07-04T14:51:45;26.50;56.90
17452;DHT22;8843;48.838;9.324;2022-07-04T14:54:12;26.50;56.60
17452;DHT22;8843;48.838;9.324;2022-07-04T14:56:39;26.50;57.30
17452;DHT22;8843;48.838;9.324;2022-07-04T14:59:07;26.30;57.60
17452;DHT22;8843;48.838;9.324;2022-07-04T15:01:34;26.40;57.90
17452;DHT22;8843;48.838;9.324;2022-07-04T15:04:01;26.30;57.50
17452;DHT22;8843;48.838;9.324;2022-07-04T15:06:28;26.30;57.70
17452;DHT22;8843;48.838;9.324;2022-07-04T15:09:03;26.20;58.40
17452;DHT22;8843;48.838;9.324;2022-07-04T15:11:31;26.20;57.60
17452;DHT22;8843;48.838;9.324;2022-07-04T15:13:58;26.10;58.30
17452;DHT22;8843;48.838;9.324;2022-07-04T15:16:25;26.20;58.00
17452;DHT22;8843;48.838;9.324;2022-07-04T15:18:52;26.20;57.90
17452;DHT22;8843;48.838;9.324;2022-07-04T15:21:19;26.10;57.50
17452;DHT22;8843;48.838;9.324;2022-07-04T15:24:06;26.20;57.40
17452;DHT22;8843;48.838;9.324;2022-07-04T15:26:41;26.20;58.10
17452;DHT22;8843;48.838;9.324;2022-07-04T15:29:08;26.20;57.80
17452;DHT22;8843;48.838;9.324;2022-07-04T15:31:35;26.20;57.70
17452;DHT22;8843;48.838;9.324;2022-07-04T15:34:02;26.20;58.00
17452;DHT22;8843;48.838;9.324;2022-07-04T15:36:29;25.90;58.20
17452;DHT22;8843;48.838;9.324;2022-07-04T15:38:56;25.80;58.10
17452;DHT22;8843;48.838;9.324;2022-07-04T15:41:24;25.90;58.70
17452;DHT22;8843;48.838;9.324;2022-07-04T15:43:51;25.90;58.80
17452;DHT22;8843;48.838;9.324;2022-07-04T15:46:18;25.70;59.10
17452;DHT22;8843;48.838;9.324;2022-07-04T15:48:45;25.90;58.60
17452;DHT22;8843;48.838;9.324;2022-07-04T15:51:12;26.10;58.00
17452;DHT22;8843;48.838;9.324;2022-07-04T15:53:38;25.90;58.30